sensor_id;sensor_type;location;lat;lon;timestamp;temperature;humidity
30534;DHT22;17318;52.390;9.754;2022-08-01T00:01:54;20.70;99.90
30534;DHT22;17318;52.390;9.754;2022-08-01T00:04:20;20.70;99.90
30534;DHT22;17318;52.390;9.754;2022-08-01T00:06:46;20.70;99.90
30534;DHT22;17318;52.390;9.754;2022-08-01T00:09:11;20.80;99.90
30534;DHT22;17318;52.390;9.754;2022-08-01T00:11:37;20.60;99.90
30534;DHT22;17318;52.390;9.754;2022-08-01T00:14:03;20.70;99.90
30534;DHT22;17318;52.390;9.754;2022-08-01T00:16:29;20.70;99.90
30534;DHT22;17318;52.390;9.754;2022-08-01T00:18:55;20.70;99.90
30534;DHT22;17318;52.390;9.754;2022-08-01T00:21:21;20.60;99.90
30534;DHT22;17318;52.390;9.754;2022-08-01T00:23:47;20.80;99.90
30534;DHT22;17318;52.390;9.754;2022-08-01T00:26:13;20.60;99.90
30534;DHT22;17318;52.390;9.754;2022-08-01T00:28:40;20.60;99.90
30534;DHT22;17318;52.390;9.754;2022-08-01T00:31:06;20.60;99.90
30534;DHT22;17318;52.390;9.754;2022-08-01T00:33:32;20.70;99.90
30534;DHT22;17318;52.390;9.754;2022-08-01T00:35:58;20.60;99.90
30534;DHT22;17318;52.390;9.754;2022-08-01T00:38:23;20.60;99.90
30534;DHT22;17318;52.390;9.754;2022-08-01T00:40:50;20.60;99.90
30534;DHT22;17318;52.390;9.754;2022-08-01T00:43:16;20.50;99.90
30534;DHT22;17318;52.390;9.754;2022-08-01T00:45:42;20.70;99.90
30534;DHT22;17318;52.390;9.754;2022-08-01T00:48:08;20.70;99.90
30534;DHT22;17318;52.390;9.754;2022-08-01T00:50:33;20.70;99.90
30534;DHT22;17318;52.390;9.754;2022-08-01T00:53:00;20.70;99.90
30534;DHT22;17318;52.390;9.754;2022-08-01T00:55:29;20.60;99.90
30534;DHT22;17318;52.390;9.754;2022-08-01T00:57:58;20.70;99.90
30534;DHT22;17318;52.390;9.754;2022-08-01T01:00:25;20.70;99.90
30534;DHT22;17318;52.390;9.754;2022-08-01T01:02:50;20.80;99.90
30534;DHT22;17318;52.390;9.754;2022-08-01T01:05:16;20.70;99.90
30534;DHT22;17318;52.390;9.754;2022-08-01T01:07:56;20.70;99.90
30534;DHT22;17318;52.390;9.754;2022-08-01T01:16:03;20.80;99.90
30534;DHT22;17318;52.390;9.754;2022-08-01T01:18:37;20.80;99.90
30534;DHT22;17318;52.390;9.754;2022-08-01T01:31:16;20.60;99.90
30534;DHT22;17318;52.390;9.754;2022-08-01T01:33:44;20.60;99.90
30534;DHT22;17318;52.390;9.754;2022-08-01T01:36:11;20.60;99.90
30534;DHT22;17318;52.390;9.754;2022-08-01T01:38:43;20.50;99.90
30534;DHT22;17318;52.390;9.754;2022-08-01T01:41:15;20.40;99.90
30534;DHT22;17318;52.390;9.754;2022-08-01T01:43:42;20.40;99.90
30534;DHT22;17318;52.390;9.754;2022-08-01T01:46:11;20.40;99.90
30534;DHT22;17318;52.390;9.754;2022-08-01T01:48:38;20.50;99.90
30534;DHT22;17318;52.390;9.754;2022-08-01T01:51:05;20.50;99.90
30534;DHT22;17318;52.390;9.754;2022-08-01T01:53:34;20.40;99.90
30534;DHT22;17318;52.390;9.754;2022-08-01T01:56:00;20.30;99.90
30534;DHT22;17318;52.390;9.754;2022-08-01T01:58:27;20.30;99.90
30534;DHT22;17318;52.390;9.754;2022-08-01T02:00:57;20.30;99.90
30534;DHT22;17318;52.390;9.754;2022-08-01T02:03:24;20.40;99.90
30534;DHT22;17318;52.390;9.754;2022-08-01T02:05:53;20.40;99.90
30534;DHT22;17318;52.390;9.754;2022-08-01T02:08:20;20.30;99.90
30534;DHT22;17318;52.390;9.754;2022-08-01T02:10:50;20.40;99.90
30534;DHT22;17318;52.390;9.754;2022-08-01T02:13:37;20.40;99.90
30534;DHT22;17318;52.390;9.754;2022-08-01T02:16:07;20.30;99.90
30534;DHT22;17318;52.390;9.754;2022-08-01T02:18:34;20.30;99.90
30534;DHT22;17318;52.390;9.754;2022-08-01T02:21:05;20.40;99.90
30534;DHT22;17318;52.390;9.754;2022-08-01T02:23:34;20.30;99.90
30534;DHT22;17318;52.390;9.754;2022-08-01T02:26:01;20.20;99.90
30534;DHT22;17318;52.390;9.754;2022-08-01T02:28:35;20.20;99.90
30534;DHT22;17318;52.390;9.754;2022-08-01T02:31:06;20.30;99.90
30534;DHT22;17318;52.390;9.754;2022-08-01T02:33:45;20.20;99.90
30534;DHT22;17318;52.390;9.754;2022-08-01T02:36:14;20.30;99.90
30534;DHT22;17318;52.390;9.754;2022-08-01T02:38:43;20.30;99.90
30534;DHT22;17318;52.390;9.754;2022-08-01T02:41:17;20.30;99.90
30534;DHT22;17318;52.390;9.754;2022-08-01T02:43:48;20.30;99.90
30534;DHT22;17318;52.390;9.754;2022-08-01T02:46:26;20.30;99.90
30534;DHT22;17318;52.390;9.754;2022-08-01T02:48:55;20.30;99.90
30534;DHT22;17318;52.390;9.754;2022-08-01T02:51:23;20.40;99.90
30534;DHT22;17318;52.390;9.754;2022-08-01T02:53:52;20.40;99.90
30534;DHT22;17318;52.390;9.754;2022-08-01T02:56:19;20.30;99.90
30534;DHT22;17318;52.390;9.754;2022-08-01T02:58:47;20.30;99.90
30534;DHT22;17318;52.390;9.754;2022-08-01T03:01:14;20.30;99.90
30534;DHT22;17318;52.390;9.754;2022-08-01T03:03:41;20.30;99.90
30534;DHT22;17318;52.390;9.754;2022-08-01T03:06:08;20.30;99.90
30534;DHT22;17318;52.390;9.754;2022-08-01T03:08:35;20.20;99.90
30534;DHT22;17318;52.390;9.754;2022-08-01T03:11:04;20.30;99.90
30534;DHT22;17318;52.390;9.754;2022-08-01T03:13:31;20.20;99.90
30534;DHT22;17318;52.390;9.754;2022-08-01T03:15:58;20.20;99.90
30534;DHT22;17318;52.390;9.754;2022-08-01T03:18:25;20.20;99.90
30534;DHT22;17318;52.390;9.754;2022-08-01T03:20:54;20.30;99.90
30534;DHT22;17318;52.390;9.754;2022-08-01T03:23:21;20.30;99.90
30534;DHT22;17318;52.390;9.754;2022-08-01T03:25:48;20.30;99.90
30534;DHT22;17318;52.390;9.754;2022-08-01T03:28:16;20.30;99.90
30534;DHT22;17318;52.390;9.754;2022-08-01T03:30:42;20.10;99.90
30534;DHT22;17318;52.390;9.754;2022-08-01T03:33:09;20.20;99.90
30534;DHT22;17318;52.390;9.754;2022-08-01T03:35:39;20.20;99.90
30534;DHT22;17318;52.390;9.754;2022-08-01T03:38:08;20.20;99.90
30534;DHT22;17318;52.390;9.754;2022-08-01T03:40:39;20.10;99.90
30534;DHT22;17318;52.390;9.754;2022-08-01T03:43:18;20.20;99.90
30534;DHT22;17318;52.390;9.754;2022-08-01T03:45:48;20.20;99.90
30534;DHT22;17318;52.390;9.754;2022-08-01T03:48:17;20.20;99.90
30534;DHT22;17318;52.390;9.754;2022-08-01T03:50:48;20.20;99.90
30534;DHT22;17318;52.390;9.754;2022-08-01T03:53:14;20.10;99.90
30534;DHT22;17318;52.390;9.754;2022-08-01T03:55:42;20.10;99.90
30534;DHT22;17318;52.390;9.754;2022-08-01T03:58:09;20.20;99.90
30534;DHT22;17318;52.390;9.754;2022-08-01T04:00:39;20.20;99.90
30534;DHT22;17318;52.390;9.754;2022-08-01T04:03:10;20.20;99.90
30534;DHT22;17318;52.390;9.754;2022-08-01T04:05:36;20.20;99.90
30534;DHT22;17318;52.390;9.754;2022-08-01T04:08:02;20.00;99.90
30534;DHT22;17318;52.390;9.754;2022-08-01T04:10:28;20.00;99.90
30534;DHT22;17318;52.390;9.754;2022-08-01T04:12:54;19.90;99.90
30534;DHT22;17318;52.390;9.754;2022-08-01T04:15:20;20.00;99.90
30534;DHT22;17318;52.390;9.754;2022-08-01T04:17:46;20.10;99.90
30534;DHT22;17318;52.390;9.754;2022-08-01T04:20:12;20.10;99.90
30534;DHT22;17318;52.390;9.754;2022-08-01T04:22:38;20.00;99.90
30534;DHT22;17318;52.390;9.754;2022-08-01T04:25:12;19.90;99.90
30534;DHT22;17318;52.390;9.754;2022-08-01T04:27:43;20.00;99.90
30534;DHT22;17318;52.390;9.754;2022-08-01T04:30:11;20.00;99.90
30534;DHT22;17318;52.390;9.754;2022-08-01T04:32:38;20.10;99.90
30534;DHT22;17318;52.390;9.754;2022-08-01T04:35:07;20.20;99.90
30534;DHT22;17318;52.390;9.754;2022-08-01T04:37:36;20.20;99.90
30534;DHT22;17318;52.390;9.754;2022-08-01T04:40:06;20.20;99.90
30534;DHT22;17318;52.390;9.754;2022-08-01T04:42:33;20.10;99.90
30534;DHT22;17318;52.390;9.754;2022-08-01T04:44:59;20.20;99.90
30534;DHT22;17318;52.390;9.754;2022-08-01T04:47:26;20.10;99.90
30534;DHT22;17318;52.390;9.754;2022-08-01T04:49:52;20.00;99.90
30534;DHT22;17318;52.390;9.754;2022-08-01T04:52:19;20.00;99.90
30534;DHT22;17318;52.390;9.754;2022-08-01T04:54:45;20.10;99.90
30534;DHT22;17318;52.390;9.754;2022-08-01T04:57:12;20.10;99.90
30534;DHT22;17318;52.390;9.754;2022-08-01T04:59:40;20.20;99.90
30534;DHT22;17318;52.390;9.754;2022-08-01T05:02:18;20.10;99.90
30534;DHT22;17318;52.390;9.754;2022-08-01T05:04:45;20.10;99.90
30534;DHT22;17318;52.390;9.754;2022-08-01T05:07:12;20.20;99.90
30534;DHT22;17318;52.390;9.754;2022-08-01T05:09:39;20.30;99.90
30534;DHT22;17318;52.390;9.754;2022-08-01T05:12:07;20.30;99.90
30534;DHT22;17318;52.390;9.754;2022-08-01T05:14:34;20.30;99.90
30534;DHT22;17318;52.390;9.754;2022-08-01T05:17:04;20.30;99.90
30534;DHT22;17318;52.390;9.754;2022-08-01T05:19:31;20.30;99.90
30534;DHT22;17318;52.390;9.754;2022-08-01T05:22:01;20.30;99.90
30534;DHT22;17318;52.390;9.754;2022-08-01T05:24:27;20.40;99.90
30534;DHT22;17318;52.390;9.754;2022-08-01T05:26:54;20.40;99.90
30534;DHT22;17318;52.390;9.754;2022-08-01T05:29:20;20.30;99.90
30534;DHT22;17318;52.390;9.754;2022-08-01T05:31:46;20.40;99.90
30534;DHT22;17318;52.390;9.754;2022-08-01T05:34:12;20.30;99.90
30534;DHT22;17318;52.390;9.754;2022-08-01T05:36:37;20.40;99.90
30534;DHT22;17318;52.390;9.754;2022-08-01T05:39:04;20.30;99.90
30534;DHT22;17318;52.390;9.754;2022-08-01T05:41:30;20.30;99.90
30534;DHT22;17318;52.390;9.754;2022-08-01T05:43:55;20.30;99.90
30534;DHT22;17318;52.390;9.754;2022-08-01T05:46:21;20.30;99.90
30534;DHT22;17318;52.390;9.754;2022-08-01T05:48:47;20.40;99.90
30534;DHT22;17318;52.390;9.754;2022-08-01T05:51:13;20.50;99.90
30534;DHT22;17318;52.390;9.754;2022-08-01T05:53:39;20.50;99.90
30534;DHT22;17318;52.390;9.754;2022-08-01T05:56:07;20.50;99.90
30534;DHT22;17318;52.390;9.754;2022-08-01T05:58:33;20.50;99.90
30534;DHT22;17318;52.390;9.754;2022-08-01T06:00:59;20.60;99.90
30534;DHT22;17318;52.390;9.754;2022-08-01T06:03:24;20.60;99.90
30534;DHT22;17318;52.390;9.754;2022-08-01T06:05:53;20.60;99.90
30534;DHT22;17318;52.390;9.754;2022-08-01T06:08:19;20.40;99.90
30534;DHT22;17318;52.390;9.754;2022-08-01T06:10:44;20.30;99.90
30534;DHT22;17318;52.390;9.754;2022-08-01T06:13:10;20.40;99.90
30534;DHT22;17318;52.390;9.754;2022-08-01T06:15:35;20.40;99.90
30534;DHT22;17318;52.390;9.754;2022-08-01T06:18:01;20.60;99.90
30534;DHT22;17318;52.390;9.754;2022-08-01T06:20:27;20.60;99.90
30534;DHT22;17318;52.390;9.754;2022-08-01T06:22:53;20.60;99.90
30534;DHT22;17318;52.390;9.754;2022-08-01T06:25:20;20.60;99.90
30534;DHT22;17318;52.390;9.754;2022-08-01T06:27:45;20.60;99.90
30534;DHT22;17318;52.390;9.754;2022-08-01T06:30:11;20.70;99.90
30534;DHT22;17318;52.390;9.754;2022-08-01T06:32:37;20.70;99.90
30534;DHT22;17318;52.390;9.754;2022-08-01T06:35:03;20.60;99.90
30534;DHT22;17318;52.390;9.754;2022-08-01T06:37:30;20.60;99.90
30534;DHT22;17318;52.390;9.754;2022-08-01T06:40:03;20.60;99.90
30534;DHT22;17318;52.390;9.754;2022-08-01T06:42:30;20.60;99.90
30534;DHT22;17318;52.390;9.754;2022-08-01T06:45:07;20.60;99.90
30534;DHT22;17318;52.390;9.754;2022-08-01T06:47:33;20.60;99.90
30534;DHT22;17318;52.390;9.754;2022-08-01T06:49:59;20.60;99.90
30534;DHT22;17318;52.390;9.754;2022-08-01T06:52:25;20.70;99.90
30534;DHT22;17318;52.390;9.754;2022-08-01T06:54:51;20.70;99.90
30534;DHT22;17318;52.390;9.754;2022-08-01T06:57:17;20.80;99.90
30534;DHT22;17318;52.390;9.754;2022-08-01T06:59:43;20.80;99.90
30534;DHT22;17318;52.390;9.754;2022-08-01T07:02:09;20.90;99.90
30534;DHT22;17318;52.390;9.754;2022-08-01T07:04:35;20.90;99.90
30534;DHT22;17318;52.390;9.754;2022-08-01T07:07:01;21.00;99.90
30534;DHT22;17318;52.390;9.754;2022-08-01T07:09:27;21.00;99.90
30534;DHT22;17318;52.390;9.754;2022-08-01T07:11:53;21.00;99.90
30534;DHT22;17318;52.390;9.754;2022-08-01T07:14:22;21.00;99.90
30534;DHT22;17318;52.390;9.754;2022-08-01T07:16:48;21.10;99.90
30534;DHT22;17318;52.390;9.754;2022-08-01T07:19:15;21.00;99.90
30534;DHT22;17318;52.390;9.754;2022-08-01T07:21:41;21.10;99.90
30534;DHT22;17318;52.390;9.754;2022-08-01T07:24:13;21.20;99.90
30534;DHT22;17318;52.390;9.754;2022-08-01T07:26:43;21.30;99.90
30534;DHT22;17318;52.390;9.754;2022-08-01T07:29:08;21.40;99.90
30534;DHT22;17318;52.390;9.754;2022-08-01T07:31:34;21.40;99.90
30534;DHT22;17318;52.390;9.754;2022-08-01T07:34:00;21.50;99.90
30534;DHT22;17318;52.390;9.754;2022-08-01T07:36:26;21.50;99.90
30534;DHT22;17318;52.390;9.754;2022-08-01T07:38:51;21.60;99.90
30534;DHT22;17318;52.390;9.754;2022-08-01T07:41:17;21.50;99.90
30534;DHT22;17318;52.390;9.754;2022-08-01T07:43:43;21.60;99.90
30534;DHT22;17318;52.390;9.754;2022-08-01T07:46:09;21.50;99.90
30534;DHT22;17318;52.390;9.754;2022-08-01T07:48:34;21.50;99.90
30534;DHT22;17318;52.390;9.754;2022-08-01T07:51:00;21.60;99.90
30534;DHT22;17318;52.390;9.754;2022-08-01T07:53:26;21.60;99.90
30534;DHT22;17318;52.390;9.754;2022-08-01T07:55:52;21.40;99.90
30534;DHT22;17318;52.390;9.754;2022-08-01T07:58:17;21.40;99.90
30534;DHT22;17318;52.390;9.754;2022-08-01T08:00:43;21.40;99.90
30534;DHT22;17318;52.390;9.754;2022-08-01T08:03:09;21.40;99.90
30534;DHT22;17318;52.390;9.754;2022-08-01T08:05:35;21.40;99.90
30534;DHT22;17318;52.390;9.754;2022-08-01T08:08:10;21.40;99.90
30534;DHT22;17318;52.390;9.754;2022-08-01T08:10:36;21.20;99.90
30534;DHT22;17318;52.390;9.754;2022-08-01T08:13:02;21.10;99.90
30534;DHT22;17318;52.390;9.754;2022-08-01T08:15:28;21.00;99.90
30534;DHT22;17318;52.390;9.754;2022-08-01T08:17:54;20.70;99.90
30534;DHT22;17318;52.390;9.754;2022-08-01T08:20:19;20.70;99.90
30534;DHT22;17318;52.390;9.754;2022-08-01T08:22:50;20.70;99.90
30534;DHT22;17318;52.390;9.754;2022-08-01T08:25:19;20.70;99.90
30534;DHT22;17318;52.390;9.754;2022-08-01T08:27:45;20.80;99.90
30534;DHT22;17318;52.390;9.754;2022-08-01T08:30:11;20.80;99.90
30534;DHT22;17318;52.390;9.754;2022-08-01T08:32:38;20.90;99.90
30534;DHT22;17318;52.390;9.754;2022-08-01T08:35:05;20.80;99.90
30534;DHT22;17318;52.390;9.754;2022-08-01T08:37:32;20.90;99.90
30534;DHT22;17318;52.390;9.754;2022-08-01T08:39:58;21.00;99.90
30534;DHT22;17318;52.390;9.754;2022-08-01T08:42:24;21.20;99.90
30534;DHT22;17318;52.390;9.754;2022-08-01T08:44:50;21.20;99.90
30534;DHT22;17318;52.390;9.754;2022-08-01T08:47:15;21.10;99.90
30534;DHT22;17318;52.390;9.754;2022-08-01T08:49:43;21.20;99.90
30534;DHT22;17318;52.390;9.754;2022-08-01T08:52:10;21.60;99.90
30534;DHT22;17318;52.390;9.754;2022-08-01T08:54:41;21.70;99.90
30534;DHT22;17318;52.390;9.754;2022-08-01T08:57:07;21.70;99.90
30534;DHT22;17318;52.390;9.754;2022-08-01T08:59:33;21.80;99.90
30534;DHT22;17318;52.390;9.754;2022-08-01T09:01:59;21.70;99.90
30534;DHT22;17318;52.390;9.754;2022-08-01T09:04:26;21.50;99.90
30534;DHT22;17318;52.390;9.754;2022-08-01T09:06:52;21.60;99.90
30534;DHT22;17318;52.390;9.754;2022-08-01T09:09:18;21.70;99.90
30534;DHT22;17318;52.390;9.754;2022-08-01T09:11:44;21.70;99.90
30534;DHT22;17318;52.390;9.754;2022-08-01T09:14:16;21.60;99.90
30534;DHT22;17318;52.390;9.754;2022-08-01T09:17:03;21.80;99.90
30534;DHT22;17318;52.390;9.754;2022-08-01T09:19:41;21.80;99.90
30534;DHT22;17318;52.390;9.754;2022-08-01T09:22:15;21.90;99.90
30534;DHT22;17318;52.390;9.754;2022-08-01T09:25:00;21.90;99.90
30534;DHT22;17318;52.390;9.754;2022-08-01T09:27:27;21.80;99.90
30534;DHT22;17318;52.390;9.754;2022-08-01T09:29:53;21.70;99.90
30534;DHT22;17318;52.390;9.754;2022-08-01T09:32:20;21.80;99.90
30534;DHT22;17318;52.390;9.754;2022-08-01T09:34:46;21.70;99.90
30534;DHT22;17318;52.390;9.754;2022-08-01T09:37:12;21.80;99.90
30534;DHT22;17318;52.390;9.754;2022-08-01T09:39:43;21.90;99.90
30534;DHT22;17318;52.390;9.754;2022-08-01T09:42:21;21.70;99.90
30534;DHT22;17318;52.390;9.754;2022-08-01T09:44:47;21.70;99.90
30534;DHT22;17318;52.390;9.754;2022-08-01T09:47:13;21.80;99.90
30534;DHT22;17318;52.390;9.754;2022-08-01T09:49:41;21.70;99.90
30534;DHT22;17318;52.390;9.754;2022-08-01T09:52:16;21.70;99.90
30534;DHT22;17318;52.390;9.754;2022-08-01T09:54:51;21.70;99.90
30534;DHT22;17318;52.390;9.754;2022-08-01T09:57:18;21.80;99.90
30534;DHT22;17318;52.390;9.754;2022-08-01T09:59:48;21.90;99.40
30534;DHT22;17318;52.390;9.754;2022-08-01T10:02:28;22.00;99.40
30534;DHT22;17318;52.390;9.754;2022-08-01T10:04:54;22.00;99.60
30534;DHT22;17318;52.390;9.754;2022-08-01T10:07:21;21.90;99.00
30534;DHT22;17318;52.390;9.754;2022-08-01T10:09:47;22.00;99.10
30534;DHT22;17318;52.390;9.754;2022-08-01T10:12:16;21.90;99.40
30534;DHT22;17318;52.390;9.754;2022-08-01T10:14:44;21.90;99.60
30534;DHT22;17318;52.390;9.754;2022-08-01T10:17:15;22.00;99.80
30534;DHT22;17318;52.390;9.754;2022-08-01T10:19:42;21.80;99.30
30534;DHT22;17318;52.390;9.754;2022-08-01T10:22:13;21.80;99.60
30534;DHT22;17318;52.390;9.754;2022-08-01T10:24:44;21.90;99.90
30534;DHT22;17318;52.390;9.754;2022-08-01T10:27:14;21.80;99.40
30534;DHT22;17318;52.390;9.754;2022-08-01T10:29:43;21.70;99.50
30534;DHT22;17318;52.390;9.754;2022-08-01T10:32:11;21.70;99.40
30534;DHT22;17318;52.390;9.754;2022-08-01T10:34:37;21.60;99.50
30534;DHT22;17318;52.390;9.754;2022-08-01T10:37:04;21.60;99.60
30534;DHT22;17318;52.390;9.754;2022-08-01T10:39:32;21.80;99.80
30534;DHT22;17318;52.390;9.754;2022-08-01T10:41:58;21.80;99.80
30534;DHT22;17318;52.390;9.754;2022-08-01T10:44:28;21.90;99.50
30534;DHT22;17318;52.390;9.754;2022-08-01T10:47:09;22.00;99.00
30534;DHT22;17318;52.390;9.754;2022-08-01T10:49:50;22.20;99.00
30534;DHT22;17318;52.390;9.754;2022-08-01T10:52:19;22.20;98.40
30534;DHT22;17318;52.390;9.754;2022-08-01T10:54:46;22.40;98.20
30534;DHT22;17318;52.390;9.754;2022-08-01T10:57:13;22.50;98.40
30534;DHT22;17318;52.390;9.754;2022-08-01T10:59:50;22.60;97.90
30534;DHT22;17318;52.390;9.754;2022-08-01T11:02:30;22.80;98.00
30534;DHT22;17318;52.390;9.754;2022-08-01T11:07:46;22.60;97.30
30534;DHT22;17318;52.390;9.754;2022-08-01T11:10:25;22.50;97.30
30534;DHT22;17318;52.390;9.754;2022-08-01T11:12:54;22.60;97.80
30534;DHT22;17318;52.390;9.754;2022-08-01T11:15:21;22.60;97.40
30534;DHT22;17318;52.390;9.754;2022-08-01T11:17:51;22.50;97.70
30534;DHT22;17318;52.390;9.754;2022-08-01T11:20:26;22.20;97.20
30534;DHT22;17318;52.390;9.754;2022-08-01T11:33:12;22.80;96.40
30534;DHT22;17318;52.390;9.754;2022-08-01T11:38:37;23.20;95.80
30534;DHT22;17318;52.390;9.754;2022-08-01T11:41:11;23.40;95.00
30534;DHT22;17318;52.390;9.754;2022-08-01T11:44:00;23.30;94.70
30534;DHT22;17318;52.390;9.754;2022-08-01T11:51:56;23.50;94.20
30534;DHT22;17318;52.390;9.754;2022-08-01T11:54:28;23.40;94.30
30534;DHT22;17318;52.390;9.754;2022-08-01T11:56:56;23.50;94.80
30534;DHT22;17318;52.390;9.754;2022-08-01T11:59:22;23.60;94.20
30534;DHT22;17318;52.390;9.754;2022-08-01T12:01:48;23.50;94.20
30534;DHT22;17318;52.390;9.754;2022-08-01T12:04:13;23.50;94.00
30534;DHT22;17318;52.390;9.754;2022-08-01T12:06:39;23.60;94.00
30534;DHT22;17318;52.390;9.754;2022-08-01T12:09:21;23.60;94.20
30534;DHT22;17318;52.390;9.754;2022-08-01T12:11:49;23.70;94.20
30534;DHT22;17318;52.390;9.754;2022-08-01T12:14:20;23.70;94.60
30534;DHT22;17318;52.390;9.754;2022-08-01T12:16:53;23.60;94.20
30534;DHT22;17318;52.390;9.754;2022-08-01T12:19:22;23.50;93.60
30534;DHT22;17318;52.390;9.754;2022-08-01T12:22:11;23.50;93.00
30534;DHT22;17318;52.390;9.754;2022-08-01T12:24:39;23.40;92.70
30534;DHT22;17318;52.390;9.754;2022-08-01T12:27:05;23.50;93.10
30534;DHT22;17318;52.390;9.754;2022-08-01T12:29:36;23.60;92.90
30534;DHT22;17318;52.390;9.754;2022-08-01T12:32:03;23.70;93.00
30534;DHT22;17318;52.390;9.754;2022-08-01T12:34:30;23.70;92.80
30534;DHT22;17318;52.390;9.754;2022-08-01T12:36:57;23.70;92.90
30534;DHT22;17318;52.390;9.754;2022-08-01T12:39:33;23.80;93.10
30534;DHT22;17318;52.390;9.754;2022-08-01T12:41:58;23.80;93.00
30534;DHT22;17318;52.390;9.754;2022-08-01T12:44:28;23.60;92.80
30534;DHT22;17318;52.390;9.754;2022-08-01T12:46:56;23.60;93.10
30534;DHT22;17318;52.390;9.754;2022-08-01T12:49:22;23.70;92.80
30534;DHT22;17318;52.390;9.754;2022-08-01T12:51:49;23.80;93.10
30534;DHT22;17318;52.390;9.754;2022-08-01T12:54:15;23.90;92.60
30534;DHT22;17318;52.390;9.754;2022-08-01T12:56:41;24.00;92.40
30534;DHT22;17318;52.390;9.754;2022-08-01T12:59:32;24.10;92.50
30534;DHT22;17318;52.390;9.754;2022-08-01T13:02:08;24.00;91.90
30534;DHT22;17318;52.390;9.754;2022-08-01T13:04:49;24.10;92.30
30534;DHT22;17318;52.390;9.754;2022-08-01T13:07:16;24.20;92.50
30534;DHT22;17318;52.390;9.754;2022-08-01T13:09:50;24.30;91.90
30534;DHT22;17318;52.390;9.754;2022-08-01T13:12:15;24.20;91.60
30534;DHT22;17318;52.390;9.754;2022-08-01T13:14:41;24.20;91.80
30534;DHT22;17318;52.390;9.754;2022-08-01T13:17:07;24.30;92.30
30534;DHT22;17318;52.390;9.754;2022-08-01T13:19:43;24.40;92.60
30534;DHT22;17318;52.390;9.754;2022-08-01T13:22:09;24.40;91.80
30534;DHT22;17318;52.390;9.754;2022-08-01T13:24:35;24.20;91.60
30534;DHT22;17318;52.390;9.754;2022-08-01T13:27:04;24.20;92.20
30534;DHT22;17318;52.390;9.754;2022-08-01T13:29:34;24.30;92.80
30534;DHT22;17318;52.390;9.754;2022-08-01T13:32:11;24.40;92.10
30534;DHT22;17318;52.390;9.754;2022-08-01T13:34:38;24.20;91.30
30534;DHT22;17318;52.390;9.754;2022-08-01T13:37:03;23.90;91.50
30534;DHT22;17318;52.390;9.754;2022-08-01T13:39:30;24.00;92.10
30534;DHT22;17318;52.390;9.754;2022-08-01T13:42:16;24.00;91.80
30534;DHT22;17318;52.390;9.754;2022-08-01T13:44:42;23.90;92.20
30534;DHT22;17318;52.390;9.754;2022-08-01T13:47:10;23.90;92.00
30534;DHT22;17318;52.390;9.754;2022-08-01T13:49:36;23.90;92.20
30534;DHT22;17318;52.390;9.754;2022-08-01T13:52:03;23.80;91.90
30534;DHT22;17318;52.390;9.754;2022-08-01T13:54:29;23.90;92.40
30534;DHT22;17318;52.390;9.754;2022-08-01T13:56:54;23.90;92.40
30534;DHT22;17318;52.390;9.754;2022-08-01T13:59:21;24.00;92.20
30534;DHT22;17318;52.390;9.754;2022-08-01T14:01:47;24.00;91.90
30534;DHT22;17318;52.390;9.754;2022-08-01T14:04:12;23.90;91.50
30534;DHT22;17318;52.390;9.754;2022-08-01T14:06:38;24.00;92.00
30534;DHT22;17318;52.390;9.754;2022-08-01T14:09:05;24.00;91.60
30534;DHT22;17318;52.390;9.754;2022-08-01T14:11:31;24.10;91.80
30534;DHT22;17318;52.390;9.754;2022-08-01T14:13:56;24.20;91.70
30534;DHT22;17318;52.390;9.754;2022-08-01T14:16:23;24.20;91.60
30534;DHT22;17318;52.390;9.754;2022-08-01T14:18:49;24.20;91.70
30534;DHT22;17318;52.390;9.754;2022-08-01T14:21:15;24.30;91.80
30534;DHT22;17318;52.390;9.754;2022-08-01T14:23:41;24.20;91.40
30534;DHT22;17318;52.390;9.754;2022-08-01T14:26:08;24.00;91.10
30534;DHT22;17318;52.390;9.754;2022-08-01T14:28:35;23.90;91.40
30534;DHT22;17318;52.390;9.754;2022-08-01T14:31:05;23.90;91.40
30534;DHT22;17318;52.390;9.754;2022-08-01T14:33:34;24.00;91.70
30534;DHT22;17318;52.390;9.754;2022-08-01T14:35:59;24.00;91.60
30534;DHT22;17318;52.390;9.754;2022-08-01T14:38:25;23.90;91.40
30534;DHT22;17318;52.390;9.754;2022-08-01T14:40:52;23.80;91.00
30534;DHT22;17318;52.390;9.754;2022-08-01T14:43:19;23.70;91.10
30534;DHT22;17318;52.390;9.754;2022-08-01T14:45:45;23.80;91.00
30534;DHT22;17318;52.390;9.754;2022-08-01T14:48:10;23.70;91.20
30534;DHT22;17318;52.390;9.754;2022-08-01T14:50:36;23.70;91.10
30534;DHT22;17318;52.390;9.754;2022-08-01T14:53:02;23.60;91.00
30534;DHT22;17318;52.390;9.754;2022-08-01T14:55:28;23.80;91.30
30534;DHT22;17318;52.390;9.754;2022-08-01T14:57:54;23.80;91.30
30534;DHT22;17318;52.390;9.754;2022-08-01T15:00:19;23.80;91.10
30534;DHT22;17318;52.390;9.754;2022-08-01T15:02:47;23.80;91.20
30534;DHT22;17318;52.390;9.754;2022-08-01T15:05:13;23.80;91.20
30534;DHT22;17318;52.390;9.754;2022-08-01T15:07:38;23.80;91.10
30534;DHT22;17318;52.390;9.754;2022-08-01T15:10:05;23.80;91.10
30534;DHT22;17318;52.390;9.754;2022-08-01T15:12:31;23.80;90.70
30534;DHT22;17318;52.390;9.754;2022-08-01T15:14:57;23.70;90.50
30534;DHT22;17318;52.390;9.754;2022-08-01T15:17:30;23.80;90.90
30534;DHT22;17318;52.390;9.754;2022-08-01T15:19:59;23.80;90.70
30534;DHT22;17318;52.390;9.754;2022-08-01T15:22:27;23.80;90.80
30534;DHT22;17318;52.390;9.754;2022-08-01T15:24:54;23.70;90.70
30534;DHT22;17318;52.390;9.754;2022-08-01T15:27:20;23.70;90.60
30534;DHT22;17318;52.390;9.754;2022-08-01T15:29:47;23.70;90.70
30534;DHT22;17318;52.390;9.754;2022-08-01T15:32:13;23.70;90.60
30534;DHT22;17318;52.390;9.754;2022-08-01T15:34:40;23.70;90.60
30534;DHT22;17318;52.390;9.754;2022-08-01T15:37:07;23.70;90.90
30534;DHT22;17318;52.390;9.754;2022-08-01T15:39:34;23.70;90.90
30534;DHT22;17318;52.390;9.754;2022-08-01T15:42:06;23.70;90.70
30534;DHT22;17318;52.390;9.754;2022-08-01T15:44:32;23.70;90.60
30534;DHT22;17318;52.390;9.754;2022-08-01T15:46:59;23.70;90.50
30534;DHT22;17318;52.390;9.754;2022-08-01T15:49:26;23.70;90.50
30534;DHT22;17318;52.390;9.754;2022-08-01T15:51:52;23.60;89.70
30534;DHT22;17318;52.390;9.754;2022-08-01T15:54:18;23.50;89.70
30534;DHT22;17318;52.390;9.754;2022-08-01T15:56:44;23.50;89.70
30534;DHT22;17318;52.390;9.754;2022-08-01T15:59:10;23.40;89.50
30534;DHT22;17318;52.390;9.754;2022-08-01T16:01:36;23.50;90.20
30534;DHT22;17318;52.390;9.754;2022-08-01T16:04:03;23.60;90.80
30534;DHT22;17318;52.390;9.754;2022-08-01T16:06:29;23.80;90.30
30534;DHT22;17318;52.390;9.754;2022-08-01T16:08:55;23.80;90.60
30534;DHT22;17318;52.390;9.754;2022-08-01T16:11:22;23.90;90.50
30534;DHT22;17318;52.390;9.754;2022-08-01T16:13:49;23.90;90.40